NWS Home NWS Lubbock West Texas Mesonet                      Daily Summary For 11/21/2020

Latest   N   C   S   Daily Sum   3hrΔ   24hrΔ   Soil Data 
Site Map   24hr Precip   72hr Precip   Google Plot


Station Time of Last Max Temp Min Temp Max/Min Dew Pt. Max/Min RH 10m Avg Wind 2m Avg Wind Peak Gust @ 33ft (mph) Potential Evapotranspiration
mm/day or in/day
Rain Sum Solar Rad
MJ/m^2
% Clear Day Red Flag
Abernathy 5ENE 11:59 PM 49 34 36 /16 75 / 37 8.3  (NE) 5.6 20.8 mph 161° @ 1241 PM 1.8 or 0.07 0.00 12.5 92.2 0
Adrian 6WSW 11:59 PM 49 34 36 /16 75 / 37 5.7  (NE) 3.6 13.4 mph 186° @ 0505 PM 1 or 0.04 0.00 4.4 33.7 0
Aiken 3WSW 11:59 PM 49 34 36 /16 75 / 37 8.2  (NE) 6.6 17.1 mph 149° @ 0359 PM 1.8 or 0.07 0.00 9.3 69.2 0
Amarillo 15NNW 11:59 PM 49 34 36 /16 75 / 37 3.3  (N) 1.7 10.1 mph 95° @ 0838 PM 0.8 or 0.03 0.00 3.1 24.1 0
Amarillo 7SSE 11:59 PM 49 34 36 /16 75 / 37 5.5  (N) 3.7 12 mph 18° @ 1011 PM 1 or 0.04 0.00 3.3 25.1 0
Amarillo 9NNE 11:59 PM 49 34 36 /16 75 / 37 2.4  (N) 1.6 9.4 mph 312° @ 0210 PM 0.8 or 0.03 0.00 3.1 24.3 0
Amherst 1NE 11:55 PM 49 34 36 /16 75 / 37 7.7  (N) 5.4 18.6 mph 162° @ 0355 PM 1.8 or 0.07 0.00 10.1 74.3 0
Andrews 2E 11:55 PM 49 34 36 /16 75 / 37 7  (S) 4.1 23.1 mph 168° @ 1230 PM 2 or 0.08 0.00 2.3 81.6 0
Anton 6SSW 11:55 PM 49 34 36 /16 75 / 37 6.9  (N) 4.8 19.9 mph 145° @ 0255 PM 1.8 or 0.07 0.00 12.6 92.5 0
Aspermont 3NE 11:55 PM 49 34 36 /16 75 / 37 4.3  (N) 1.4 15.4 mph 205° @ 1250 PM 1.5 or 0.06 0.00 11.8 85.7 0
Big Bend NP - Castolon 11:59 PM 49 34 36 /16 75 / 37 3.4  (NW) 2.6 12.5 mph 154° @ 1203 PM 2.3 or 0.09 0.00 16.3 104.1 0
Big Bend NP - Persimmon Gap 11:59 PM 49 34 36 /16 75 / 37 9  (N) 7.3 22.5 mph 3° @ 0834 PM 3 or 0.12 0.00 16.1 103.9 0
Big Lake 1WNW 11:59 PM 49 34 36 /16 75 / 37 9.3  (SE) 7.3 25.3 mph 164° @ 0255 PM 2.3 or 0.09 0.00 11.7 79.3 0
Bootleg 11WNW 11:59 PM 49 34 36 /16 75 / 37 5.2  (N) 3 11.5 mph 176° @ 0411 PM 1 or 0.04 0.00 3.5 26.8 0
Borger 7E 11:59 PM 49 34 36 /16 75 / 37 4.6  (NW) 2.8 13.2 mph 104° @ 0601 PM 1 or 0.04 0.00 4 31.7 0
Boys Ranch 1WSW 11:59 PM 49 34 36 /16 75 / 37 2.1  (S) 0.8 8.3 mph 20° @ 0912 PM 0.8 or 0.03 0.00 3.2 25.3 0
Brownfield 2S 11:59 PM 49 34 36 /16 75 / 37 8.8  (E) 6.5 21.9 mph 152° @ 0321 PM 1.8 or 0.07 0.00 13.6 97.9 0
Canadian 6E 11:59 PM 49 34 36 /16 75 / 37 7.2  (NE) 5.3 16.5 mph 15° @ 0656 AM 1 or 0.04 0.01 3.7 29.7 0
Caprock Canyons State Park 11:59 PM 49 34 36 /16 75 / 37 4.8  (N) 2.9 14.5 mph 1° @ 0150 AM 1.3 or 0.05 0.00 8.5 64.1 0
Childress 2NNE 11:55 PM 49 34 36 /16 75 / 37 7.4  (N) 5 18.4 mph 42° @ 0810 PM 1.5 or 0.06 0.00 9.3 70.4 0
Clarendon 2WSW 11:55 PM 49 34 36 /16 75 / 37 6.8  (N) 4.4 14.9 mph 34° @ 1150 PM 1 or 0.04 0.00 4.7 36.4 0
Claude 12SW 11:59 PM 49 34 36 /16 75 / 37 6.9  (NE) 4.8 14 mph 2° @ 0355 AM 1 or 0.04 0.00 4.1 31.2 0
Clyde 2WNW 11:59 PM 49 34 36 /16 75 / 37 7.1  (S) 4.8 19.1 mph 218° @ 1033 AM 2 or 0.08 0.00 10.5 74.6 0
Colorado City 5NW 11:59 PM 49 34 36 /16 75 / 37 6.9  (E) 3.9 20 mph 179° @ 1256 PM 2 or 0.08 0.00 10.4 73.6 0
Comanche Springs 11:59 PM 49 34 36 /16 75 / 37 6.4  (N) 4.8 18.6 mph 16° @ 1247 AM 1.5 or 0.06 0.00 9.1 68.3 0
Coyanosa 2N 11:59 PM 49 34 36 /16 75 / 37 6.5  (E) 4 17 mph 108° @ 0527 PM 2.3 or 0.09 0.00 14.1 96.2 0
Crane 1NNW 11:59 PM 49 34 36 /16 75 / 37 10.2  (SE) 8.2 24.8 mph 150° @ 1257 PM 2.5 or 0.1 0.00 14.2 96.7 0
Crowell 1E 11:59 PM 49 34 36 /16 75 / 37 6.9  (N) 5.1 15.5 mph 348° @ 0652 AM 1.5 or 0.06 0.00 9.1 68.5 0
Dell City 11:59 PM 49 34 36 /16 75 / 37 5.5  (NW) 3.3 14.2 mph 294° @ 1203 AM 2.3 or 0.09 0.00 13 89.5 0
Denver City 7WNW 11:55 PM 49 34 36 /16 75 / 37 8.3  (E) 5.4 20.5 mph 146° @ 0400 PM 2 or 0.08 0.00 14.3 102.1 0
Dimmitt 2NE 11:55 PM 49 34 36 /16 75 / 37 6.3  (N) 4.4 12.4 mph 38° @ 0510 AM 1.3 or 0.05 0.00 4.7 35.1 0
Doole 3WNW 11:59 PM 49 34 36 /16 75 / 37 6.8  (S) 4.9 19.1 mph 154° @ 1103 AM 2.3 or 0.09 0.00 12.8 88.2 0
Dora NM 2SW 11:55 PM 49 34 36 /16 75 / 37 6.9  (NE) 4.1 17.7 mph 150° @ 0845 PM 1.8 or 0.07 0.00 9.3 68.4 0
Dozier 3W 11:59 PM 49 34 36 /16 75 / 37 7  (N) 4.7 19.1 mph 14° @ 0336 AM 1.3 or 0.05 0.00 4.8 36.9 0
Earth 9WSW 11:59 PM 49 34 36 /16 75 / 37 6.2  (N) 1.4 16 mph 154° @ 0645 PM 1.5 or 0.06 0.00 7.1 53 0
Endee NM 2SW 11:59 PM 49 34 36 /16 75 / 37 3.7  (N) 1.9 12.3 mph 18° @ 0713 PM 1 or 0.04 0.00 4.3 32.6 0
Estelline 3SSE 11:59 PM 49 34 36 /16 75 / 37 5.9  (N) 3.6 15.1 mph 44° @ 0820 PM 1.5 or 0.06 0.00 9.3 70.8 0
Floydada 2NNE 11:55 PM 49 34 36 /16 75 / 37 8.3  (NE) 5.4 20.4 mph 161° @ 0220 PM 1.8 or 0.07 0.00 10.5 77.9 0
Fluvanna 3WNW 11:55 PM 49 34 36 /16 75 / 37 7.2  (NE) 5 17.5 mph 149° @ 1035 AM 1.8 or 0.07 0.00 8 57.1 0
Fort Chadbourne 11:59 PM 49 34 36 /16 75 / 37 4.7  (SE) 2.8 18.1 mph 135° @ 0254 PM 1.8 or 0.07 0.00 10.6 74.3 0
Fort Lancaster 11:59 PM 49 34 36 /16 75 / 37 9.8  (SE) 6.8 26.1 mph 145° @ 0146 PM 2.3 or 0.09 0.00 8.9 59.8 0
Fort Lewis CO 11:59 PM 49 34 36 /16 75 / 37 7.5  (NE) 4.9 28 mph 311° @ 0534 AM 1.5 or 0.06 0.00 12.2 98.2 0
Fort McKavett 11:59 PM 49 34 36 /16 75 / 37 5.2  (W) 2.6 18.9 mph 107° @ 0336 PM 2 or 0.08 0.00 12.7 85.5 0
Friona 2NE 11:55 PM 49 34 36 /16 75 / 37 5  (N) 3.1 13.3 mph 354° @ 1125 PM 1 or 0.04 0.00 3.8 28.3 0
Fritch 1WNW 11:59 PM 49 34 36 /16 75 / 37 4  (N) 2.9 10.4 mph 93° @ 0920 PM 0.8 or 0.03 0.00 4 31.7 0
Gail 2ESE 11:55 PM 49 34 36 /16 75 / 37 5.6  (N) 1.8 15.9 mph 147° @ 0305 PM 1.8 or 0.07 0.00 1.9 67.3 0
Goodlett 3W 11:55 PM 49 34 36 /16 75 / 37 8.5  (N) 6.6 21.6 mph 37° @ 0805 PM 1.8 or 0.07 0.00 9.6 72.6 0
Goodnight 11:59 PM 49 34 36 /16 75 / 37 6  (N) 4.2 11.7 mph 100° @ 0728 PM 1 or 0.04 0.00 4.4 33.9 0
Graham 5SSW 11:59 PM 49 34 36 /16 75 / 37 6.9  (E) 4.7 19.7 mph 67° @ 0119 AM 1.5 or 0.06 0.00 11.3 81.3 0
Guadalupe Mtns Natl Park 11:59 PM 49 34 36 /16 75 / 37 5.2  (N) 3.9 12.5 mph 93° @ 0202 PM 2 or 0.08 0.00 12.9 87.1 0
Guthrie 10WSW 11:55 PM 49 34 36 /16 75 / 37 7.1  (N) 4.5 14.8 mph 3° @ 0355 AM 1.8 or 0.07 0.00 10 73.9 0
Hackberry 2SSE 11:59 PM 49 34 36 /16 75 / 37 6.7  (N) 4.7 14.8 mph 47° @ 1010 PM 1.5 or 0.06 0.00 9.6 72 0
Happy 1E 11:59 PM 49 34 36 /16 75 / 37 6.3  (N) 4.5 13.6 mph 17° @ 0400 AM 1.3 or 0.05 0.00 5 38.1 0
Hart 3N 11:55 PM 49 34 36 /16 75 / 37 7  (N) 4.3 14.3 mph 23° @ 0420 AM 1.5 or 0.06 0.00 7.1 53.5 0
Haskell 1NW 11:55 PM 49 34 36 /16 75 / 37 5.5  (N) 3.6 14.9 mph 225° @ 0215 PM 1.8 or 0.07 0.00 11.2 81.7 0
Hefner 1SW 11:59 PM 49 34 36 /16 75 / 37 5.9  (NE) 3.8 14.7 mph 27° @ 0625 PM 1.8 or 0.07 0.00 10.9 80.8 0
Hereford 2NW 11:55 PM 49 34 36 /16 75 / 37 4.9  (N) 3.5 12.7 mph 2° @ 1055 PM 1 or 0.04 0.00 3.5 26.4 0
Hobbs NM 5NW 11:59 PM 49 34 36 /16 75 / 37 6.9  (E) 4.8 18.1 mph 140° @ 0442 PM 2 or 0.08 0.00 14.3 101.1 0
Jayton 1SSE 11:55 PM 49 34 36 /16 75 / 37 5.8  (NE) 3.8 17.5 mph 214° @ 0150 PM 1.5 or 0.06 0.00 12.5 91.2 0
Junction 1SSW 11:59 PM 49 34 36 /16 75 / 37 4  (W) 3.1 16.7 mph 164° @ 0313 PM 1.5 or 0.06 0.00 6.9 46 0
Kent 9E 11:59 PM 49 34 36 /16 75 / 37 5.1  (SW) 3.2 12.4 mph 47° @ 0330 PM 2 or 0.08 0.00 15.3 102.3 0
Knox City 3NW 11:59 PM 49 34 36 /16 75 / 37 4  (N) 2 14.2 mph 31° @ 1149 PM 1.5 or 0.06 0.00 11.8 87 0
Lake Alan Henry 1NW 11:59 PM 49 34 36 /16 75 / 37 5  (E) 2.4 19.8 mph 169° @ 0211 PM 1.5 or 0.06 0.00 9.8 71.1 0
Lake McClellan 2NW 11:59 PM 49 34 36 /16 75 / 37 8.1  (N) 5.9 17.8 mph 15° @ 0347 AM 1.3 or 0.05 0.00 3.4 25.9 0
Lamesa 2SE 11:55 PM 49 34 36 /16 75 / 37 6.3  (E) 3.3 18.6 mph 152° @ 0440 PM 1.8 or 0.07 0.00 10.1 71.6 0
Lesley 2S 11:59 PM 49 34 36 /16 75 / 37 6.3  (W) 4.1 17.7 mph 51° @ 0758 PM 1.5 or 0.06 0.00 8.5 65 0
Levelland 4S 11:59 PM 49 34 36 /16 75 / 37 7.6  (NE) 5.5 23 mph 150° @ 0348 PM 1.8 or 0.07 0.00 13.9 101.3 0
Lomax 1SSE 11:59 PM 49 34 36 /16 75 / 37 6.6  (S) 4 25.3 mph 186° @ 0133 PM 2 or 0.08 0.00 10.7 74.6 0
Lubbock 3WNW TTU 11:55 PM 49 34 36 /16 75 / 37 5.9  (NE) 3.2 17.7 mph 166° @ 0315 PM 1.8 or 0.07 0.00 12.9 94.4 0
McAdoo 3NNW 11:59 PM 49 34 36 /16 75 / 37 9.1  (NE) 5.9 19.7 mph 157° @ 0312 PM 1.8 or 0.07 0.00 11.7 85.8 0
McCamey 1SSW 11:59 PM 49 34 36 /16 75 / 37 10.4  (SE) 9 24.3 mph 150° @ 1049 AM 2.5 or 0.1 0.00 11.1 75.5 0
McLean 1E 11:55 PM 49 34 36 /16 75 / 37 7.5  (N) 5.8 18.5 mph 38° @ 1000 PM 1.3 or 0.05 0.00 4.6 35.6 0
Memphis 1NE 11:55 PM 49 34 36 /16 75 / 37 6.7  (N) 5.3 16.7 mph 357° @ 0150 AM 1.5 or 0.06 0.00 7.1 54.7 0
Menard 2NW 11:59 PM 49 34 36 /16 75 / 37 4.9  (S) 3.3 21.3 mph 196° @ 0203 PM 1.8 or 0.07 0.00 11 74 0
Mertzon 3NNE 11:59 PM 49 34 36 /16 75 / 37 5.2  (SW) 3.2 23.7 mph 152° @ 1247 PM 1.8 or 0.07 0.00 11.7 79.6 0
Morton 1ENE 11:55 PM 49 34 36 /16 75 / 37 7.8  (N) 5.4 18.9 mph 152° @ 0435 PM 2 or 0.08 0.00 12.3 89.5 0
Muleshoe 2SSW 11:55 PM 49 34 36 /16 75 / 37 4.6  (NE) 2.8 14.8 mph 353° @ 0435 PM 1.3 or 0.05 0.00 7.2 53.3 0
New Home 11:59 PM 49 34 36 /16 75 / 37 6.9  (E) 4.4 19.7 mph 142° @ 1249 PM 1.8 or 0.07 0.00 13.2 95.5 0
Northfield 1S 11:55 PM 49 34 36 /16 75 / 37 6.2  (N) 3.9 19.5 mph 61° @ 0935 PM 1.5 or 0.06 0.00 8.9 66.8 0
O'Donnell 1N 11:55 PM 49 34 36 /16 75 / 37 7.6  (NE) 4.1 17.9 mph 157° @ 1105 AM 1.8 or 0.07 0.00 8.7 62.2 0
Odell 4ENE 11:59 PM 49 34 36 /16 75 / 37 8.1  (N) 5.5 18.1 mph 25° @ 0806 PM 1.5 or 0.06 0.00 7.6 58 0
Olton 6S 11:55 PM 49 34 36 /16 75 / 37 8.4  (NE) 6 18.3 mph 168° @ 0110 PM 1.8 or 0.07 0.00 9.9 73.3 0
Paducah 10SW 11:55 PM 49 34 36 /16 75 / 37 7  (NE) 3.7 15.4 mph 37° @ 1055 PM 1.8 or 0.07 0.00 9.6 71.7 0
Palo Duro 4E (JA Ranch) 11:59 PM 49 34 36 /16 75 / 37 5.3  (NW) 3.1 12.9 mph 348° @ 0221 AM 1.3 or 0.05 0.00 6.1 46.7 0
Palo Duro Canyon SP Floor 11:59 PM 49 34 36 /16 75 / 37 2.4  (N) 0.6 10.7 mph 11° @ 1052 PM 1 or 0.04 0.00 3.9 30.2 0
Palo Duro Canyon State Park Rim 11:59 PM 49 34 36 /16 75 / 37 4.1  (N) 1.9 12.9 mph 0° @ 0351 AM 1 or 0.04 0.00 4 30.9 0
Palo Duro Reservoir 1NW 11:59 PM 49 34 36 /16 75 / 37 6.8  (NE) 5.1 17.5 mph 23° @ 1211 AM 1.3 or 0.05 0.00 6.1 49.6 0
Pampa 2E 11:55 PM 49 34 36 /16 75 / 37 5.3  (N) 3.6 13.5 mph 35° @ 0945 PM 1 or 0.04 0.00 3.3 25.6 0
Panhandle 1SSW 11:59 PM 49 34 36 /16 75 / 37 5.8  (N) 4.6 13.2 mph 114° @ 0816 PM 1 or 0.04 0.00 3.3 25.3 0
Plains 3N 11:55 PM 49 34 36 /16 75 / 37 9.4  (NE) 7.4 20.5 mph 125° @ 0250 PM 2 or 0.08 0.00 14 100.7 0
Plainview 1S 11:59 PM 49 34 36 /16 75 / 37 7  (NE) 5.1 17.5 mph 159° @ 0242 PM 1.8 or 0.07 0.00 8.9 66.1 0
Post 1NE 11:59 PM 49 34 36 /16 75 / 37 4.5  (N) 2 18.6 mph 192° @ 0255 PM 1.3 or 0.05 0.00 10.8 77.9 0
Ralls 1SE 11:55 PM 49 34 36 /16 75 / 37 7.7  (NE) 5.4 18.5 mph 156° @ 0315 PM 1.8 or 0.07 0.00 12.1 88.8 0
Reese Center 11:59 PM 49 34 36 /16 75 / 37 8.2  (N) 5.2 21.9 mph 162° @ 0327 PM 1.8 or 0.07 0.00 12.7 92.8 0
Roaring Springs 3N 11:55 PM 49 34 36 /16 75 / 37 7.5  (N) 5.2 26.1 mph 143° @ 0250 PM 1.5 or 0.06 0.00 9.6 71.1 0
Romero 11SSW 11:59 PM 49 34 36 /16 75 / 37 6.3  (N) 4.6 14.6 mph 170° @ 0434 PM 1 or 0.04 0.00 5.3 41.1 0
Rotan 5W 11:59 PM 49 34 36 /16 75 / 37 5  (NE) 3.2 15.4 mph 220° @ 1226 PM 1.5 or 0.06 0.00 9.6 69.3 0
San Angelo 7NW 11:55 PM 49 34 36 /16 75 / 37 5.3  (SE) 2.9 25.1 mph 156° @ 1125 AM 2 or 0.08 0.00 13 89.7 0
Seagraves 1SW 11:55 PM 49 34 36 /16 75 / 37 6.8  (NE) 4.5 18.6 mph 140° @ 1225 PM 1.8 or 0.07 0.00 12.1 86 0
Segovia 7SSW 11:59 PM 49 34 36 /16 75 / 37 6.1  (SE) 3.7 17.6 mph 128° @ 0409 PM 2 or 0.08 0.00 9.3 61.8 0
Seminole 2NNE 11:55 PM 49 34 36 /16 75 / 37 8.5  (NE) 5.4 19.8 mph 140° @ 0440 PM 2 or 0.08 0.00 13.7 96.8 0
Seymour 3NW 11:55 PM 49 34 36 /16 75 / 37 5.2  (N) 3.6 17.3 mph 30° @ 1150 PM 1.5 or 0.06 0.00 9.9 73.6 0
Sierra Blanca 1SSE 11:59 PM 49 34 36 /16 75 / 37 6.8  (S) 4.5 22.1 mph 144° @ 0150 PM 2.8 or 0.11 0.00 13.6 90.7 0
Silverton 7ESE 11:55 PM 49 34 36 /16 75 / 37 7.3  (NE) 4.9 16.2 mph 105° @ 0940 PM 1.3 or 0.05 0.00 8.6 64.6 0
Slaton 2NE 11:59 PM 49 34 36 /16 75 / 37 6.4  (NE) 4.3 20.8 mph 161° @ 0131 PM 1.5 or 0.06 0.00 13.4 97.8 0
Smyer 11:59 PM 49 34 36 /16 75 / 37 6.5  (N) 4.4 19.6 mph 167° @ 0447 PM 1.8 or 0.07 0.00 13.2 96.3 0
Snyder 3E 11:55 PM 49 34 36 /16 75 / 37 8.4  (N) 3.6 18.6 mph 162° @ 0335 PM 2.3 or 0.09 0.00 7.5 53.7 0
Snyder 3SSW 11:59 PM 49 34 36 /16 75 / 37 5.4  (N) 2.9 18 mph 167° @ 0349 PM 1.8 or 0.07 0.00 9 63.9 0
South Plains 3ENE 11:59 PM 49 34 36 /16 75 / 37 7.5  (NE) 5.6 15.1 mph 68° @ 1143 PM 1.5 or 0.06 0.00 9.3 69.9 0
Spur 1W 11:55 PM 49 34 36 /16 75 / 37 6.1  (NE) 4.4 17 mph 198° @ 0315 PM 1.8 or 0.07 0.00 12.4 90.5 0
St. Lawrence 5SW 11:55 PM 49 34 36 /16 75 / 37 10.7  (SE) 7.4 28.7 mph 168° @ 0230 PM 2.3 or 0.09 0.00 12.6 86.3 0
Stamford 5ESE 11:59 PM 49 34 36 /16 75 / 37 5.2  (N) 3.1 16.8 mph 205° @ 1115 AM 1.8 or 0.07 0.00 12 86.9 0
Sterling City 4WSW 11:59 PM 49 34 36 /16 75 / 37 6.3  (S) 4 22.1 mph 168° @ 1209 PM 1.8 or 0.07 0.00 8.9 61.6 0
Stinnett 1NNW 11:59 PM 49 34 36 /16 75 / 37 5.5  (N) 3.9 14 mph 11° @ 0235 AM 1 or 0.04 0.00 3.9 31.2 0
Stratford 4WNW 11:59 PM 49 34 36 /16 75 / 37 5.9  (N) 3.9 12.6 mph 144° @ 1033 PM 1.3 or 0.05 0.00 6 47.8 0
Sundown 8WSW 11:55 PM 49 34 36 /16 75 / 37 8.6  (NE) 4.8 19.5 mph 133° @ 0250 PM 2 or 0.08 0.00 11.6 83.6 0
Sweetwater 11SW 11:59 PM 49 34 36 /16 75 / 37 7.5  (SE) 4.7 25.1 mph 171° @ 0336 PM 2 or 0.08 0.00 11.3 79.4 0
Tahoka 3NNE 11:59 PM 49 34 36 /16 75 / 37 7.4  (E) 4 17.9 mph 177° @ 0113 PM 1.5 or 0.06 0.00 12.3 88.5 0
Tarzan 2WNW 11:59 PM 49 34 36 /16 75 / 37 8  (S) 4.6 20.5 mph 156° @ 0141 PM 2 or 0.08 0.00 10.4 72.7 0
Tatum NM 2SW 11:55 PM 49 34 36 /16 75 / 37 9.1  (N) 4.2 18.9 mph 148° @ 0400 PM 2.3 or 0.09 0.00 14.4 103.1 0
Throckmorton 1SW 11:59 PM 49 34 36 /16 75 / 37 3.8  (NW) 1.2 14.6 mph 225° @ 1158 AM 1.5 or 0.06 0.00 10.1 73.7 0
Truscott 2SE 11:59 PM 49 34 36 /16 75 / 37 5.8  (N) 4 19.4 mph 47° @ 0934 PM 1.5 or 0.06 0.00 9.4 70.2 0
Tulia 2ENE 11:55 PM 49 34 36 /16 75 / 37 6.7  (N) 4.7 14.5 mph 77° @ 0505 PM 1.5 or 0.06 0.00 5.5 41.3 0
Turkey 2WSW 11:55 PM 49 34 36 /16 75 / 37 6.3  (NW) 4.6 13.1 mph 66° @ 1005 PM 1.5 or 0.06 0.00 7.7 58.2 0
Umbarger 3NNE 11:59 PM 49 34 36 /16 75 / 37 5.2  (N) 3.1 12.2 mph 7° @ 1025 PM 1 or 0.04 0.00 3.8 28.7 0
Van Horn 3ENE 11:59 PM 49 34 36 /16 75 / 37 5.2  (NE) 3 19.5 mph 65° @ 0448 PM 2.5 or 0.1 0.00 16.1 107.7 0
Vega 4E 11:59 PM 49 34 36 /16 75 / 37 4.6  (N) 2.4 13.2 mph 57° @ 0727 PM 0.8 or 0.03 0.00 3.5 26.6 0
Vigo Park 11:59 PM 49 34 36 /16 75 / 37 6.4  (N) 4.5 15.8 mph 92° @ 0808 PM 1.3 or 0.05 0.00 6.1 46.2 0
Wall 2E 11:59 PM 49 34 36 /16 75 / 37 8  (S) 5 21.3 mph 177° @ 0132 PM 2.5 or 0.1 0.00 12.8 87.6 0
Weinert 2NNE 11:59 PM 49 34 36 /16 75 / 37 4.1  (NE) 2.5 13.8 mph 33° @ 1155 PM 1.5 or 0.06 0.00 10.7 78.2 0
Welch 11:59 PM 49 34 36 /16 75 / 37 8.2  (E) 5.5 22.1 mph 135° @ 1033 AM 2 or 0.08 0.00 10.3 73.9 0
White River Lake 6NW 11:59 PM 49 34 36 /16 75 / 37 7.7  (NE) 4.9 19.7 mph 189° @ 0333 PM 1.8 or 0.07 0.00 12.9 94 0
Wolfforth 6SSW 11:59 PM 49 34 36 /16 75 / 37 8.1  (E) 5.4 21.9 mph 173° @ 0332 PM 1.8 or 0.07 0.00 14 101.4 0

WestTexas Mesonet Home    Site Map/Menu  National Weather Service Lubbock   Soil Data   Latest Observation Page   Previous  Date   Next Last